createdAt,value
2023-03-17T00:01:54.611Z,56.94
2023-03-17T00:04:24.460Z,56.98
2023-03-17T00:06:53.031Z,56.84
2023-03-17T00:09:23.439Z,56.92
2023-03-17T00:11:51.568Z,56.78
2023-03-17T00:14:20.070Z,56.74
2023-03-17T00:16:53.564Z,56.69
2023-03-17T00:19:27.743Z,56.70
2023-03-17T00:21:56.384Z,56.68
2023-03-17T00:24:28.381Z,56.92
2023-03-17T00:26:56.611Z,56.53
2023-03-17T00:29:25.542Z,56.50
2023-03-17T00:31:54.651Z,56.63
2023-03-17T00:34:23.397Z,56.47
2023-03-17T00:36:52.581Z,56.60
2023-03-17T00:39:20.877Z,56.36
2023-03-17T00:41:50.391Z,56.61
2023-03-17T00:44:18.629Z,56.66
2023-03-17T00:46:46.753Z,56.45
2023-03-17T00:49:20.751Z,56.14
2023-03-17T00:51:50.166Z,56.30
2023-03-17T00:54:20.697Z,56.25
2023-03-17T00:56:52.824Z,56.24
2023-03-17T00:59:26.581Z,56.23
2023-03-17T01:01:55.640Z,56.41
2023-03-17T01:04:24.062Z,56.31
2023-03-17T01:06:53.096Z,56.46
2023-03-17T01:09:25.993Z,56.29
2023-03-17T01:11:56.203Z,56.26
2023-03-17T01:14:24.911Z,56.13
2023-03-17T01:16:53.239Z,56.27
2023-03-17T01:19:21.257Z,56.08
2023-03-17T01:21:49.492Z,56.12
2023-03-17T01:24:17.404Z,56.26
2023-03-17T01:26:45.931Z,56.03
2023-03-17T01:29:16.617Z,56.63
2023-03-17T01:31:45.564Z,56.21
2023-03-17T01:34:13.693Z,56.00
2023-03-17T01:36:42.103Z,56.31
2023-03-17T01:39:10.752Z,56.12
2023-03-17T01:41:40.276Z,56.20
2023-03-17T01:44:13.905Z,55.90
2023-03-17T01:46:45.067Z,56.19
2023-03-17T01:49:21.520Z,55.89
2023-03-17T01:51:59.045Z,55.98
2023-03-17T01:54:32.879Z,55.89
2023-03-17T01:57:09.451Z,56.14
2023-03-17T01:59:43.673Z,56.10
2023-03-17T02:02:19.014Z,56.08
2023-03-17T02:04:47.079Z,56.13
2023-03-17T02:07:15.778Z,56.15
2023-03-17T02:09:44.826Z,56.25
2023-03-17T02:12:13.874Z,56.26
2023-03-17T02:14:42.033Z,56.25
2023-03-17T02:17:10.241Z,56.19
2023-03-17T02:19:40.137Z,56.31
2023-03-17T02:22:10.267Z,56.09
2023-03-17T02:24:43.375Z,56.24
2023-03-17T02:27:17.721Z,56.29
2023-03-17T02:29:47.168Z,56.19
2023-03-17T02:32:17.793Z,56.33
2023-03-17T02:34:47.170Z,56.02
2023-03-17T02:37:17.845Z,56.17
2023-03-17T02:39:45.999Z,56.21
2023-03-17T02:42:14.681Z,56.27
2023-03-17T02:44:42.672Z,56.25
2023-03-17T02:47:10.925Z,56.19
2023-03-17T02:49:42.423Z,56.20
2023-03-17T02:52:11.010Z,56.13
2023-03-17T02:54:40.694Z,56.06
2023-03-17T02:57:08.996Z,56.13
2023-03-17T02:59:37.557Z,56.01
2023-03-17T03:02:05.799Z,55.99
2023-03-17T03:04:33.842Z,55.88
2023-03-17T03:07:02.427Z,55.90
2023-03-17T03:09:30.636Z,56.10
2023-03-17T03:12:00.176Z,55.85
2023-03-17T03:14:28.257Z,55.84
2023-03-17T03:16:56.165Z,55.99
2023-03-17T03:19:24.341Z,55.88
2023-03-17T03:21:52.503Z,55.99
2023-03-17T03:24:21.950Z,55.90
2023-03-17T03:26:49.931Z,55.87
2023-03-17T03:29:19.502Z,55.88
2023-03-17T03:31:48.711Z,55.93
2023-03-17T03:34:17.398Z,55.99
2023-03-17T03:36:45.523Z,56.00
2023-03-17T03:39:14.560Z,55.82
2023-03-17T03:41:42.643Z,55.88
2023-03-17T03:44:11.917Z,55.77
2023-03-17T03:46:41.722Z,55.73
2023-03-17T03:49:09.864Z,55.85
2023-03-17T03:51:37.847Z,55.78
2023-03-17T03:54:05.920Z,55.98
2023-03-17T03:56:34.449Z,55.77
2023-03-17T03:59:02.561Z,55.57
2023-03-17T04:01:30.662Z,55.81
2023-03-17T04:04:00.106Z,55.84
2023-03-17T04:06:28.200Z,55.88
2023-03-17T04:08:58.223Z,55.92
2023-03-17T04:11:26.407Z,55.69
2023-03-17T04:13:54.403Z,55.58
2023-03-17T04:16:22.537Z,55.68
2023-03-17T04:18:51.370Z,55.50
2023-03-17T04:21:21.824Z,55.60
2023-03-17T04:23:49.882Z,55.65
2023-03-17T04:26:19.316Z,55.63
2023-03-17T04:28:47.752Z,55.57
2023-03-17T04:31:17.981Z,55.78
2023-03-17T04:33:46.004Z,55.63
2023-03-17T04:36:19.409Z,55.55
2023-03-17T04:38:49.170Z,55.48
2023-03-17T04:41:17.419Z,55.82
2023-03-17T04:43:45.583Z,55.41
2023-03-17T04:46:13.929Z,55.37
2023-03-17T04:48:42.146Z,55.29
2023-03-17T04:51:11.770Z,55.65
2023-03-17T04:53:40.113Z,55.33
2023-03-17T04:56:10.138Z,55.48
2023-03-17T04:58:38.456Z,55.44
2023-03-17T05:01:07.530Z,55.40
2023-03-17T05:03:36.134Z,55.45
2023-03-17T05:06:05.258Z,55.54
2023-03-17T05:08:33.266Z,55.48
2023-03-17T05:11:01.667Z,55.73
2023-03-17T05:13:31.000Z,55.34
2023-03-17T05:16:00.940Z,55.20
2023-03-17T05:18:29.154Z,55.54
2023-03-17T05:20:57.207Z,55.43
2023-03-17T05:23:26.053Z,55.36
2023-03-17T05:25:54.631Z,55.57
2023-03-17T05:28:22.890Z,55.27
2023-03-17T05:30:52.984Z,55.35
2023-03-17T05:33:21.690Z,55.59
2023-03-17T05:35:50.086Z,55.43
2023-03-17T05:38:18.430Z,55.29
2023-03-17T05:40:48.474Z,55.39
2023-03-17T05:43:17.024Z,55.28
2023-03-17T05:45:45.751Z,55.52
2023-03-17T05:48:15.152Z,55.27
2023-03-17T05:50:43.626Z,55.47
2023-03-17T05:53:11.808Z,55.03
2023-03-17T05:55:40.803Z,55.68
2023-03-17T05:58:09.624Z,55.39
2023-03-17T06:00:38.215Z,55.37
2023-03-17T06:03:07.835Z,55.32
2023-03-17T06:05:37.673Z,55.33
2023-03-17T06:08:06.527Z,55.46
2023-03-17T06:10:34.849Z,55.39
2023-03-17T06:13:04.105Z,55.36
2023-03-17T06:15:33.148Z,55.34
2023-03-17T06:18:01.548Z,55.41
2023-03-17T06:20:29.586Z,55.42
2023-03-17T06:23:04.491Z,55.41
2023-03-17T06:25:33.901Z,55.21
2023-03-17T06:28:03.951Z,55.23
2023-03-17T06:30:33.018Z,54.93
2023-03-17T06:33:02.569Z,55.20
2023-03-17T06:35:31.198Z,55.17
2023-03-17T06:38:01.214Z,55.25
2023-03-17T06:40:30.201Z,55.27
2023-03-17T06:42:58.747Z,55.11
2023-03-17T06:45:27.578Z,55.15
2023-03-17T06:47:56.334Z,55.40
2023-03-17T06:50:24.952Z,55.60
2023-03-17T06:52:53.341Z,55.17
2023-03-17T06:55:23.519Z,55.53
2023-03-17T06:57:52.622Z,55.49
2023-03-17T07:00:22.816Z,55.66
2023-03-17T07:02:52.828Z,55.41
2023-03-17T07:05:20.865Z,55.58
2023-03-17T07:07:49.334Z,55.65
2023-03-17T07:10:18.177Z,55.58
2023-03-17T07:12:47.915Z,55.62
2023-03-17T07:15:17.581Z,55.41
2023-03-17T07:17:46.939Z,55.77
2023-03-17T07:20:15.123Z,55.65
2023-03-17T07:22:43.836Z,55.60
2023-03-17T07:25:12.052Z,55.54
2023-03-17T07:27:40.459Z,55.69
2023-03-17T07:30:19.040Z,55.70
2023-03-17T07:32:47.289Z,55.52
2023-03-17T07:35:16.260Z,55.66
2023-03-17T07:37:44.962Z,55.81
2023-03-17T07:40:14.135Z,55.59
2023-03-17T07:42:42.333Z,55.50
2023-03-17T07:45:13.791Z,55.63
2023-03-17T07:47:41.953Z,55.78
2023-03-17T07:50:11.151Z,55.35
2023-03-17T07:52:39.417Z,54.98
2023-03-17T07:55:10.867Z,55.30
2023-03-17T07:57:39.284Z,55.34
2023-03-17T08:00:09.565Z,55.19
2023-03-17T08:02:39.973Z,54.98
2023-03-17T08:05:09.190Z,54.97
2023-03-17T08:07:39.173Z,54.97
2023-03-17T08:10:09.554Z,54.94
2023-03-17T08:12:39.934Z,55.04
2023-03-17T08:15:10.795Z,55.00
2023-03-17T08:17:41.400Z,54.85
2023-03-17T08:20:11.953Z,54.97
2023-03-17T08:22:41.002Z,54.94
2023-03-17T08:25:11.866Z,54.96
2023-03-17T08:27:42.018Z,55.14
2023-03-17T08:30:13.353Z,54.84
2023-03-17T08:32:43.248Z,54.59
2023-03-17T08:35:16.127Z,54.76
2023-03-17T08:37:46.447Z,54.86
2023-03-17T08:40:17.256Z,54.94
2023-03-17T08:42:46.078Z,54.70
2023-03-17T08:45:15.689Z,54.52
2023-03-17T08:47:45.400Z,54.24
2023-03-17T08:50:18.343Z,54.45
2023-03-17T08:52:47.183Z,54.32
2023-03-17T08:55:15.883Z,54.52
2023-03-17T08:57:44.844Z,54.44
2023-03-17T09:00:14.781Z,54.14
2023-03-17T09:02:46.329Z,54.40
2023-03-17T09:05:15.789Z,54.17
2023-03-17T09:07:43.970Z,53.99
2023-03-17T09:10:13.874Z,53.75
2023-03-17T09:12:42.069Z,53.88
2023-03-17T09:15:12.480Z,53.77
2023-03-17T09:17:44.146Z,53.63
2023-03-17T09:20:14.979Z,54.03
2023-03-17T09:22:45.189Z,54.09
2023-03-17T09:25:13.439Z,53.83
2023-03-17T09:27:46.141Z,53.45
2023-03-17T09:30:15.700Z,53.35
2023-03-17T09:32:51.553Z,53.13
2023-03-17T09:35:24.364Z,52.53
2023-03-17T09:37:59.000Z,52.12
2023-03-17T09:40:38.246Z,51.61
2023-03-17T09:43:20.692Z,51.51
2023-03-17T09:45:50.071Z,51.11
2023-03-17T09:48:48.694Z,50.76
2023-03-17T09:51:21.773Z,50.55
2023-03-17T09:53:55.722Z,50.60
2023-03-17T09:56:29.189Z,50.44
2023-03-17T09:59:02.800Z,50.37
2023-03-17T10:01:32.738Z,50.23
2023-03-17T10:04:01.813Z,50.25
2023-03-17T10:06:41.168Z,50.03
2023-03-17T10:09:24.728Z,50.10
2023-03-17T10:12:13.598Z,49.48
2023-03-17T10:14:57.522Z,49.23
2023-03-17T10:17:36.346Z,49.33
2023-03-17T10:20:25.729Z,49.18
2023-03-17T10:23:00.982Z,49.21
2023-03-17T10:25:35.391Z,49.40
2023-03-17T10:28:09.006Z,49.65
2023-03-17T10:30:53.742Z,49.87
2023-03-17T10:33:23.150Z,49.51
2023-03-17T10:39:14.653Z,48.47
2023-03-17T10:44:51.611Z,47.57
2023-03-17T10:47:32.339Z,46.63
2023-03-17T10:53:22.331Z,45.88
2023-03-17T10:55:54.420Z,46.26
2023-03-17T10:58:35.049Z,46.51
2023-03-17T11:01:08.105Z,46.77
2023-03-17T11:03:41.299Z,46.88
2023-03-17T11:06:12.707Z,47.08
2023-03-17T11:08:43.023Z,47.11
2023-03-17T11:11:27.835Z,47.24
2023-03-17T11:14:03.274Z,46.98
2023-03-17T11:16:36.465Z,47.11
2023-03-17T11:19:07.042Z,47.18
2023-03-17T11:21:50.217Z,46.87
2023-03-17T11:24:27.038Z,46.80
2023-03-17T11:27:13.228Z,47.28
2023-03-17T11:30:14.828Z,47.48
2023-03-17T11:32:48.280Z,47.48
2023-03-17T11:36:00.417Z,47.07
2023-03-17T11:38:41.069Z,46.74
2023-03-17T11:41:27.464Z,46.32
2023-03-17T11:44:18.946Z,46.49
2023-03-17T11:46:52.203Z,46.44
2023-03-17T11:49:23.270Z,46.46
2023-03-17T11:52:06.410Z,46.28
2023-03-17T11:54:48.742Z,45.98
2023-03-17T11:57:24.101Z,45.98
2023-03-17T11:59:59.082Z,45.77
2023-03-17T12:02:33.023Z,45.78
2023-03-17T12:05:06.188Z,45.68
2023-03-17T12:07:38.761Z,46.36
2023-03-17T12:10:17.413Z,46.31
2023-03-17T12:12:51.427Z,46.20
2023-03-17T12:15:28.228Z,46.01
2023-03-17T12:18:00.618Z,45.76
2023-03-17T12:20:35.212Z,45.58
2023-03-17T12:23:11.172Z,45.56
2023-03-17T12:25:48.016Z,46.15
2023-03-17T12:28:19.802Z,46.71
2023-03-17T12:30:54.600Z,46.96
2023-03-17T12:33:31.144Z,46.98
2023-03-17T12:36:02.741Z,46.91
2023-03-17T12:38:39.657Z,47.48
2023-03-17T12:41:34.859Z,47.32
2023-03-17T12:44:10.373Z,46.93
2023-03-17T12:47:25.213Z,47.20
2023-03-17T12:50:48.440Z,46.81
2023-03-17T12:53:52.890Z,46.66
2023-03-17T12:56:27.854Z,47.00
2023-03-17T12:59:03.314Z,47.16
2023-03-17T13:01:37.704Z,46.48
2023-03-17T13:04:18.972Z,46.18
2023-03-17T13:06:54.968Z,45.95
2023-03-17T13:09:51.062Z,45.99
2023-03-17T13:13:01.032Z,46.23
2023-03-17T13:15:54.057Z,46.44
2023-03-17T13:18:55.340Z,46.59
2023-03-17T13:21:29.226Z,46.98
2023-03-17T13:24:21.857Z,46.91
2023-03-17T13:27:01.198Z,46.96
2023-03-17T13:33:38.583Z,46.23
2023-03-17T13:36:54.636Z,46.08
2023-03-17T13:40:01.878Z,46.01
2023-03-17T13:42:44.868Z,45.88
2023-03-17T13:45:49.946Z,45.80
2023-03-17T13:48:42.739Z,45.51
2023-03-17T13:51:30.722Z,45.15
2023-03-17T13:57:57.671Z,45.46
2023-03-17T14:00:40.294Z,45.29
2023-03-17T14:03:17.664Z,45.05
2023-03-17T14:05:56.158Z,44.76
2023-03-17T14:08:34.229Z,44.57
2023-03-17T14:11:06.677Z,44.67
2023-03-17T14:13:53.268Z,44.62
2023-03-17T14:16:27.258Z,44.58
2023-03-17T14:19:00.639Z,44.78
2023-03-17T14:21:34.297Z,45.17
2023-03-17T14:24:21.689Z,45.47
2023-03-17T14:26:50.560Z,46.24
2023-03-17T14:29:23.056Z,47.15
2023-03-17T14:32:02.660Z,47.80
2023-03-17T14:35:08.525Z,48.57
2023-03-17T14:43:47.393Z,49.52
2023-03-17T14:46:26.329Z,49.89
2023-03-17T14:49:01.863Z,50.26
2023-03-17T14:51:32.806Z,50.16
2023-03-17T14:54:03.948Z,49.84
2023-03-17T14:56:37.607Z,49.67
2023-03-17T14:59:08.990Z,49.32
2023-03-17T15:01:45.621Z,49.10
2023-03-17T15:04:17.594Z,48.82
2023-03-17T15:06:51.809Z,48.29
2023-03-17T15:09:26.341Z,48.31
2023-03-17T15:11:57.715Z,47.97
2023-03-17T15:15:01.318Z,47.82
2023-03-17T15:17:34.933Z,47.53
2023-03-17T15:20:08.208Z,47.56
2023-03-17T15:22:43.768Z,47.57
2023-03-17T15:25:29.308Z,47.60
2023-03-17T15:27:58.297Z,47.45
2023-03-17T15:30:37.345Z,47.79
2023-03-17T15:33:23.282Z,47.93
2023-03-17T15:35:52.616Z,47.54
2023-03-17T15:38:21.919Z,47.78
2023-03-17T15:40:51.357Z,47.41
2023-03-17T15:43:22.096Z,47.28
2023-03-17T15:45:58.811Z,47.50
2023-03-17T15:48:32.736Z,47.18
2023-03-17T15:51:14.585Z,47.22
2023-03-17T15:53:43.345Z,47.23
2023-03-17T15:56:17.319Z,47.71
2023-03-17T15:58:46.407Z,47.54
2023-03-17T16:01:17.845Z,47.39
2023-03-17T16:03:49.453Z,47.38
2023-03-17T16:06:22.812Z,47.16
2023-03-17T16:08:53.812Z,46.90
2023-03-17T16:11:29.870Z,47.42
2023-03-17T16:14:01.592Z,47.60
2023-03-17T16:16:52.875Z,47.80
2023-03-17T16:19:54.472Z,48.28
2023-03-17T16:22:48.284Z,48.83
2023-03-17T16:25:26.403Z,48.82
2023-03-17T16:27:58.593Z,49.17
2023-03-17T16:30:30.194Z,49.42
2023-03-17T16:33:07.952Z,49.66
2023-03-17T16:35:37.667Z,49.65
2023-03-17T16:38:08.479Z,49.75
2023-03-17T16:40:39.065Z,50.07
2023-03-17T16:43:22.505Z,50.01
2023-03-17T16:45:55.488Z,50.17
2023-03-17T16:48:23.513Z,50.21
2023-03-17T16:50:53.847Z,50.46
2023-03-17T16:53:22.094Z,50.47
2023-03-17T16:55:50.900Z,50.70
2023-03-17T16:58:22.299Z,50.87
2023-03-17T17:00:53.301Z,50.61
2023-03-17T17:03:21.438Z,50.76
2023-03-17T17:05:50.022Z,50.93
2023-03-17T17:08:20.292Z,50.96
2023-03-17T17:10:49.690Z,51.15
2023-03-17T17:13:18.413Z,51.20
2023-03-17T17:15:47.831Z,51.31
2023-03-17T17:18:18.222Z,51.29
2023-03-17T17:20:47.310Z,51.50
2023-03-17T17:23:17.537Z,51.65
2023-03-17T17:25:50.791Z,51.63
2023-03-17T17:28:22.114Z,51.79
2023-03-17T17:30:51.091Z,51.65
2023-03-17T17:33:20.136Z,51.68
2023-03-17T17:35:48.860Z,51.76
2023-03-17T17:38:23.053Z,51.55
2023-03-17T17:40:52.525Z,51.71
2023-03-17T17:43:20.997Z,51.89
2023-03-17T17:45:50.314Z,51.58
2023-03-17T17:48:20.610Z,51.61
2023-03-17T17:50:53.400Z,51.73
2023-03-17T17:53:21.640Z,51.49
2023-03-17T17:55:51.014Z,51.70
2023-03-17T17:58:31.243Z,51.82
2023-03-17T18:01:02.635Z,51.55
2023-03-17T18:03:42.066Z,51.63
2023-03-17T18:06:11.207Z,51.43
2023-03-17T18:08:40.569Z,51.45
2023-03-17T18:11:09.299Z,51.58
2023-03-17T18:13:42.538Z,51.67
2023-03-17T18:16:17.452Z,51.74
2023-03-17T18:18:49.306Z,51.60
2023-03-17T18:21:17.929Z,51.36
2023-03-17T18:23:50.182Z,51.79
2023-03-17T18:26:24.235Z,51.72
2023-03-17T18:29:04.923Z,51.89
2023-03-17T18:31:38.821Z,51.73
2023-03-17T18:34:10.125Z,51.63
2023-03-17T18:36:39.330Z,51.90
2023-03-17T18:39:08.213Z,51.72
2023-03-17T18:41:36.274Z,51.99
2023-03-17T18:44:07.459Z,52.02
2023-03-17T18:46:35.796Z,52.08
2023-03-17T18:49:03.746Z,52.13
2023-03-17T18:51:31.824Z,52.11
2023-03-17T18:53:59.992Z,52.34
2023-03-17T18:56:29.337Z,52.36
2023-03-17T18:59:03.331Z,52.14
2023-03-17T19:01:32.826Z,52.50
2023-03-17T19:04:04.141Z,52.33
2023-03-17T19:06:32.236Z,52.94
2023-03-17T19:09:00.189Z,53.21
2023-03-17T19:11:28.694Z,52.86
2023-03-17T19:13:58.443Z,53.06
2023-03-17T19:16:29.095Z,53.10
2023-03-17T19:18:59.461Z,53.11
2023-03-17T19:21:28.393Z,53.18
2023-03-17T19:23:59.263Z,53.27
2023-03-17T19:26:27.833Z,53.37
2023-03-17T19:28:56.780Z,53.46
2023-03-17T19:31:25.788Z,53.62
2023-03-17T19:33:55.478Z,53.85
2023-03-17T19:36:25.446Z,53.68
2023-03-17T19:38:53.442Z,53.60
2023-03-17T19:41:21.401Z,53.75
2023-03-17T19:43:49.456Z,53.75
2023-03-17T19:46:17.499Z,53.87
2023-03-17T19:48:45.641Z,53.86
2023-03-17T19:51:14.691Z,54.00
2023-03-17T19:53:44.020Z,54.08
2023-03-17T19:56:12.207Z,54.05
2023-03-17T19:58:40.792Z,54.07
2023-03-17T20:01:09.393Z,54.01
2023-03-17T20:03:42.537Z,54.05
2023-03-17T20:06:11.241Z,53.85
2023-03-17T20:08:40.381Z,53.67
2023-03-17T20:11:10.818Z,53.55
2023-03-17T20:13:39.017Z,53.79
2023-03-17T20:16:09.032Z,53.95
2023-03-17T20:18:37.679Z,53.96
2023-03-17T20:21:07.821Z,53.86
2023-03-17T20:23:38.553Z,54.11
2023-03-17T20:26:07.192Z,53.90
2023-03-17T20:28:38.732Z,54.01
2023-03-17T20:31:08.297Z,54.18
2023-03-17T20:33:36.577Z,54.31
2023-03-17T20:36:05.139Z,54.23
2023-03-17T20:38:37.520Z,54.29
2023-03-17T20:41:07.762Z,54.01
2023-03-17T20:43:38.362Z,54.35
2023-03-17T20:46:09.182Z,54.33
2023-03-17T20:48:38.287Z,54.33
2023-03-17T20:51:07.096Z,54.23
2023-03-17T20:53:36.508Z,54.28
2023-03-17T20:56:05.430Z,54.51
2023-03-17T20:58:52.185Z,54.66
2023-03-17T21:01:24.256Z,54.57
2023-03-17T21:03:54.114Z,54.52
2023-03-17T21:06:26.060Z,54.47
2023-03-17T21:08:54.608Z,54.59
2023-03-17T21:11:24.113Z,54.64
2023-03-17T21:13:53.619Z,54.20
2023-03-17T21:16:25.630Z,54.37
2023-03-17T21:18:55.214Z,54.45
2023-03-17T21:21:25.188Z,54.50
2023-03-17T21:23:53.488Z,54.44
2023-03-17T21:26:23.103Z,54.36
2023-03-17T21:28:53.890Z,54.50
2023-03-17T21:31:23.592Z,54.33
2023-03-17T21:33:52.115Z,54.49
2023-03-17T21:36:21.833Z,54.68
2023-03-17T21:38:50.411Z,54.77
2023-03-17T21:45:03.842Z,54.38
2023-03-17T21:47:45.940Z,54.43
2023-03-17T21:50:17.458Z,54.59
2023-03-17T21:52:46.192Z,54.59
2023-03-17T21:55:14.841Z,54.76
2023-03-17T21:57:43.484Z,54.75
2023-03-17T22:00:13.919Z,54.70
2023-03-17T22:02:44.344Z,54.46
2023-03-17T22:05:12.979Z,54.63
2023-03-17T22:07:41.753Z,54.46
2023-03-17T22:10:11.456Z,54.57
2023-03-17T22:12:40.246Z,54.52
2023-03-17T22:15:10.960Z,54.50
2023-03-17T22:17:39.768Z,54.34
2023-03-17T22:20:11.051Z,54.44
2023-03-17T22:22:39.679Z,54.42
2023-03-17T22:25:09.035Z,54.24
2023-03-17T22:27:44.667Z,54.24
2023-03-17T22:30:19.373Z,54.58
2023-03-17T22:32:49.595Z,54.71
2023-03-17T22:35:21.645Z,54.62
2023-03-17T22:37:50.069Z,54.87
2023-03-17T22:40:19.166Z,54.69
2023-03-17T22:42:47.324Z,54.25
2023-03-17T22:45:28.597Z,55.14
2023-03-17T22:47:59.207Z,54.72
2023-03-17T22:50:33.174Z,55.00
2023-03-17T22:53:01.675Z,54.90
2023-03-17T22:55:30.720Z,54.92
2023-03-17T22:57:59.102Z,54.99
2023-03-17T23:00:27.535Z,54.91
2023-03-17T23:02:55.581Z,54.95
2023-03-17T23:05:23.747Z,55.11
2023-03-17T23:07:53.757Z,55.10
2023-03-17T23:10:24.907Z,54.92
2023-03-17T23:12:54.712Z,54.94
2023-03-17T23:15:23.126Z,54.84
2023-03-17T23:17:51.981Z,54.91
2023-03-17T23:20:22.788Z,54.43
2023-03-17T23:22:52.803Z,54.71
2023-03-17T23:25:21.809Z,54.83
2023-03-17T23:27:50.497Z,54.85
2023-03-17T23:30:19.263Z,54.81
2023-03-17T23:32:48.349Z,54.85
2023-03-17T23:35:16.979Z,54.93
2023-03-17T23:37:45.398Z,54.89
2023-03-17T23:40:17.389Z,54.73
2023-03-17T23:42:48.149Z,54.75
2023-03-17T23:45:17.243Z,55.06
2023-03-17T23:47:46.859Z,54.89
2023-03-17T23:50:15.958Z,54.83
2023-03-17T23:52:44.354Z,55.14
2023-03-17T23:55:14.592Z,55.01
2023-03-17T23:57:44.244Z,54.96
